createdAt,value
2022-10-04T00:01:10.835Z,12.77
2022-10-04T00:03:49.160Z,6.72
2022-10-04T00:06:26.509Z,9.63
2022-10-04T00:09:01.375Z,16.75
2022-10-04T00:11:38.574Z,10.57
2022-10-04T00:14:16.953Z,6.97
2022-10-04T00:16:46.583Z,10.38
2022-10-04T00:19:16.219Z,10.13
2022-10-04T00:21:52.358Z,10.02
2022-10-04T00:24:24.615Z,10.48
2022-10-04T00:26:51.016Z,10.73
2022-10-04T00:29:26.622Z,9.50
2022-10-04T00:32:08.208Z,10.27
2022-10-04T00:34:52.271Z,10.27
2022-10-04T00:37:20.952Z,10.52
2022-10-04T00:39:57.969Z,8.38
2022-10-04T00:42:42.789Z,9.10
2022-10-04T00:45:46.099Z,9.70
2022-10-04T00:48:29.000Z,10.18
2022-10-04T00:51:04.952Z,9.85
2022-10-04T00:53:34.368Z,14.30
2022-10-04T00:56:04.023Z,12.52
2022-10-04T00:58:38.049Z,11.85
2022-10-04T01:01:05.175Z,12.35
2022-10-04T01:03:40.124Z,10.75
2022-10-04T01:06:10.761Z,14.70
2022-10-04T01:08:49.265Z,11.80
2022-10-04T01:11:20.695Z,8.70
2022-10-04T01:13:52.243Z,11.93
2022-10-04T01:16:19.941Z,9.68
2022-10-04T01:18:47.560Z,10.38
2022-10-04T01:21:20.359Z,10.52
2022-10-04T01:23:47.982Z,11.68
2022-10-04T01:26:30.005Z,10.70
2022-10-04T01:31:23.114Z,14.95
2022-10-04T01:33:49.650Z,13.63
2022-10-04T01:36:16.179Z,12.65
2022-10-04T01:38:42.669Z,15.13
2022-10-04T01:41:12.342Z,13.27
2022-10-04T01:43:43.152Z,8.57
2022-10-04T01:46:37.133Z,14.75
2022-10-04T01:49:11.884Z,10.75
2022-10-04T01:51:56.605Z,10.25
2022-10-04T01:54:34.602Z,14.32
2022-10-04T01:57:16.943Z,11.52
2022-10-04T02:00:06.284Z,15.02
2022-10-04T02:03:00.099Z,13.00
2022-10-04T02:05:40.399Z,11.82
2022-10-04T02:08:11.630Z,17.83
2022-10-04T02:10:43.588Z,13.43
2022-10-04T02:13:15.391Z,11.00
2022-10-04T02:15:42.258Z,10.35
2022-10-04T02:18:18.204Z,12.75
2022-10-04T02:20:47.172Z,9.32
2022-10-04T02:23:17.474Z,11.30
2022-10-04T02:25:44.141Z,14.45
2022-10-04T02:28:13.865Z,11.90
2022-10-04T02:31:09.280Z,9.88
2022-10-04T02:33:42.313Z,12.27
2022-10-04T02:36:10.315Z,7.03
2022-10-04T02:38:44.048Z,8.63
2022-10-04T02:41:27.148Z,11.88
2022-10-04T02:44:04.865Z,7.70
2022-10-04T02:46:41.073Z,13.05
2022-10-04T02:49:19.600Z,12.88
2022-10-04T02:52:03.417Z,11.63
2022-10-04T02:54:29.904Z,11.45
2022-10-04T02:56:58.026Z,13.82
2022-10-04T02:59:25.110Z,13.27
2022-10-04T03:02:00.210Z,12.30
2022-10-04T03:04:38.647Z,15.90
2022-10-04T03:07:07.960Z,15.68
2022-10-04T03:09:37.222Z,9.27
2022-10-04T03:12:04.998Z,13.05
2022-10-04T03:14:32.458Z,12.38
2022-10-04T03:17:03.979Z,11.90
2022-10-04T03:19:32.503Z,11.30
2022-10-04T03:22:07.909Z,16.25
2022-10-04T03:24:46.877Z,10.77
2022-10-04T03:27:35.304Z,13.48
2022-10-04T03:30:02.030Z,12.05
2022-10-04T03:32:30.750Z,17.75
2022-10-04T03:35:00.341Z,14.60
2022-10-04T03:37:30.596Z,14.50
2022-10-04T03:39:58.156Z,14.32
2022-10-04T03:42:30.253Z,15.32
2022-10-04T03:45:08.395Z,17.20
2022-10-04T03:47:40.957Z,21.05
2022-10-04T03:50:34.199Z,17.85
2022-10-04T03:53:12.050Z,13.13
2022-10-04T03:55:45.247Z,16.13
2022-10-04T03:58:15.936Z,14.73
2022-10-04T04:01:14.135Z,12.80
2022-10-04T04:04:01.743Z,12.25
2022-10-04T04:06:44.102Z,10.52
2022-10-04T04:09:21.676Z,12.10
2022-10-04T04:11:50.837Z,11.50
2022-10-04T04:14:24.703Z,9.38
2022-10-04T04:16:53.185Z,12.15
2022-10-04T04:19:23.959Z,10.95
2022-10-04T04:21:54.206Z,10.82
2022-10-04T04:24:32.235Z,12.15
2022-10-04T04:27:05.255Z,12.98
2022-10-04T04:29:52.331Z,10.32
2022-10-04T04:32:28.379Z,11.10
2022-10-04T04:35:06.811Z,12.32
2022-10-04T04:37:35.151Z,12.43
2022-10-04T04:40:24.807Z,8.93
2022-10-04T04:42:52.350Z,10.90
2022-10-04T04:45:19.162Z,12.35
2022-10-04T04:47:50.427Z,8.93
2022-10-04T04:50:18.418Z,10.70
2022-10-04T04:52:53.878Z,11.05
2022-10-04T04:55:26.719Z,10.10
2022-10-04T04:57:56.820Z,9.73
2022-10-04T05:00:33.122Z,13.57
2022-10-04T05:03:17.587Z,11.65
2022-10-04T05:05:48.071Z,9.43
2022-10-04T05:08:27.892Z,9.27
2022-10-04T05:11:08.244Z,8.30
2022-10-04T05:13:46.719Z,7.13
2022-10-04T05:16:22.227Z,8.20
2022-10-04T05:18:54.470Z,8.90
2022-10-04T05:21:28.558Z,11.25
2022-10-04T05:23:58.271Z,10.98
2022-10-04T05:26:28.848Z,9.30
2022-10-04T05:28:59.464Z,10.63
2022-10-04T05:31:37.872Z,9.30
2022-10-04T05:34:18.108Z,9.55
2022-10-04T05:37:06.744Z,10.95
2022-10-04T05:39:58.472Z,11.57
2022-10-04T05:42:45.161Z,14.27
2022-10-04T05:45:26.281Z,12.32
2022-10-04T05:47:54.883Z,9.75
2022-10-04T05:50:53.933Z,10.88
2022-10-04T05:53:29.513Z,11.55
2022-10-04T05:56:25.715Z,11.18
2022-10-04T05:59:29.863Z,11.23
2022-10-04T06:02:23.031Z,13.10
2022-10-04T06:04:59.973Z,10.13
2022-10-04T06:07:35.004Z,11.23
2022-10-04T06:10:35.084Z,11.15
2022-10-04T06:13:17.030Z,15.70
2022-10-04T06:16:05.373Z,15.55
2022-10-04T06:18:56.704Z,14.00
2022-10-04T06:21:29.146Z,18.40
2022-10-04T06:24:10.411Z,15.30
2022-10-04T06:26:48.237Z,10.37
2022-10-04T06:29:21.055Z,11.65
2022-10-04T06:31:57.070Z,12.77
2022-10-04T06:34:49.908Z,11.93
2022-10-04T06:37:25.463Z,8.90
2022-10-04T06:39:57.650Z,10.02
2022-10-04T06:42:56.106Z,12.15
2022-10-04T06:45:52.850Z,8.85
2022-10-04T06:48:34.838Z,11.75
2022-10-04T06:51:25.953Z,11.95
2022-10-04T06:54:07.677Z,11.00
2022-10-04T06:56:53.331Z,9.00
2022-10-04T07:00:20.409Z,10.50
2022-10-04T07:02:52.654Z,10.55
2022-10-04T07:05:31.576Z,6.38
2022-10-04T07:08:38.595Z,9.80
2022-10-04T07:11:16.827Z,11.43
2022-10-04T07:13:49.200Z,9.00
2022-10-04T07:16:45.988Z,9.00
2022-10-04T07:19:26.242Z,8.60
2022-10-04T07:22:05.667Z,10.63
2022-10-04T07:24:52.526Z,7.70
2022-10-04T07:27:41.696Z,11.48
2022-10-04T07:30:15.503Z,7.97
2022-10-04T07:32:47.087Z,13.77
2022-10-04T07:35:44.916Z,10.93
2022-10-04T07:38:15.789Z,12.02
2022-10-04T07:40:54.315Z,5.03
2022-10-04T07:43:30.429Z,10.88
2022-10-04T07:46:34.710Z,10.18
2022-10-04T07:49:01.617Z,10.52
2022-10-04T07:51:36.803Z,11.40
2022-10-04T07:54:21.663Z,14.60
2022-10-04T07:56:58.061Z,11.13
2022-10-04T07:59:39.432Z,8.18
2022-10-04T08:02:31.396Z,16.63
2022-10-04T08:05:37.886Z,14.32
2022-10-04T08:08:37.785Z,13.57
2022-10-04T08:11:27.284Z,9.10
2022-10-04T08:14:04.308Z,14.20
2022-10-04T08:16:49.369Z,14.25
2022-10-04T08:19:24.788Z,15.50
2022-10-04T08:22:13.043Z,20.67
2022-10-04T08:24:56.536Z,12.45
2022-10-04T08:28:03.141Z,23.20
2022-10-04T08:30:40.089Z,11.57
2022-10-04T08:33:26.276Z,20.60
2022-10-04T08:36:14.342Z,16.85
2022-10-04T08:38:42.316Z,22.95
2022-10-04T08:41:33.149Z,23.77
2022-10-04T08:44:49.284Z,13.75
2022-10-04T08:47:22.098Z,22.58
2022-10-04T08:49:52.158Z,20.80
2022-10-04T08:52:18.529Z,11.57
2022-10-04T08:54:57.097Z,14.50
2022-10-04T08:57:58.146Z,21.27
2022-10-04T09:01:02.283Z,15.93
2022-10-04T09:03:35.573Z,17.17
2022-10-04T09:06:24.108Z,18.77
2022-10-04T09:09:21.058Z,20.02
2022-10-04T09:12:07.707Z,13.35
2022-10-04T09:15:05.304Z,20.42
2022-10-04T09:17:50.950Z,18.00
2022-10-04T09:20:59.049Z,18.33
2022-10-04T09:23:31.332Z,25.48
2022-10-04T09:26:06.405Z,29.25
2022-10-04T09:28:49.112Z,19.58
2022-10-04T09:31:21.067Z,22.48
2022-10-04T09:33:52.635Z,26.42
2022-10-04T09:36:29.695Z,25.73
2022-10-04T09:39:30.718Z,26.83
2022-10-04T09:42:33.621Z,25.13
2022-10-04T09:45:06.358Z,24.77
2022-10-04T09:48:02.155Z,28.40
2022-10-04T09:51:07.997Z,27.90
2022-10-04T09:53:44.389Z,38.10
2022-10-04T09:56:37.038Z,35.60
2022-10-04T09:59:22.177Z,26.92
2022-10-04T10:02:00.722Z,37.80
2022-10-04T10:04:33.025Z,35.75
2022-10-04T10:07:20.828Z,29.00
2022-10-04T10:10:29.017Z,33.72
2022-10-04T10:13:42.841Z,31.23
2022-10-04T10:16:12.507Z,24.80
2022-10-04T10:18:58.436Z,33.00
2022-10-04T10:22:10.937Z,29.40
2022-10-04T10:24:47.009Z,33.33
2022-10-04T10:27:43.729Z,33.78
2022-10-04T10:30:12.955Z,34.75
2022-10-04T10:33:06.299Z,30.45
2022-10-04T10:35:59.965Z,28.40
2022-10-04T10:38:48.346Z,23.52
2022-10-04T10:41:31.283Z,28.83
2022-10-04T10:44:09.003Z,27.90
2022-10-04T10:46:58.816Z,23.52
2022-10-04T10:49:40.979Z,24.17
2022-10-04T10:52:54.656Z,25.80
2022-10-04T10:55:29.415Z,22.17
2022-10-04T10:58:27.964Z,27.65
2022-10-04T11:01:15.761Z,28.80
2022-10-04T11:04:16.509Z,32.25
2022-10-04T11:07:20.544Z,32.80
2022-10-04T11:10:21.497Z,26.95
2022-10-04T11:13:26.930Z,25.00
2022-10-04T11:16:21.451Z,25.05
2022-10-04T11:18:56.904Z,24.10
2022-10-04T11:21:45.238Z,30.98
2022-10-04T11:24:21.323Z,22.13
2022-10-04T11:27:28.414Z,30.15
2022-10-04T11:30:02.949Z,27.27
2022-10-04T11:32:59.525Z,25.55
2022-10-04T11:36:00.290Z,22.23
2022-10-04T11:38:48.425Z,22.50
2022-10-04T11:41:52.861Z,30.30
2022-10-04T11:44:59.760Z,23.38
2022-10-04T11:47:41.373Z,26.30
2022-10-04T11:50:22.550Z,24.25
2022-10-04T11:52:49.570Z,15.32
2022-10-04T11:55:31.156Z,15.40
2022-10-04T11:58:21.159Z,16.67
2022-10-04T12:01:16.060Z,15.20
2022-10-04T12:04:01.518Z,19.70
2022-10-04T12:06:37.249Z,15.32
2022-10-04T12:09:18.832Z,13.98
2022-10-04T12:12:29.037Z,15.15
2022-10-04T12:15:05.545Z,13.82
2022-10-04T12:17:40.826Z,13.25
2022-10-04T12:20:18.871Z,13.07
2022-10-04T12:23:03.235Z,15.43
2022-10-04T12:25:58.488Z,13.70
2022-10-04T12:28:47.554Z,16.25
2022-10-04T12:31:23.765Z,10.60
2022-10-04T12:34:05.877Z,12.93
2022-10-04T12:37:15.283Z,13.35
2022-10-04T12:39:44.394Z,15.73
2022-10-04T12:42:29.250Z,15.18
2022-10-04T12:45:20.149Z,17.15
2022-10-04T12:47:48.154Z,10.25
2022-10-04T12:50:14.555Z,7.60
2022-10-04T12:53:14.979Z,13.55
2022-10-04T12:56:22.099Z,9.57
2022-10-04T12:58:51.202Z,10.10
2022-10-04T13:01:31.626Z,10.73
2022-10-04T13:04:10.336Z,11.98
2022-10-04T13:07:03.784Z,13.55
2022-10-04T13:10:05.420Z,15.73
2022-10-04T13:12:55.084Z,12.15
2022-10-04T13:18:30.416Z,7.80
2022-10-04T13:21:07.677Z,7.78
2022-10-04T13:23:40.277Z,12.57
2022-10-04T13:26:23.669Z,8.10
2022-10-04T13:29:11.906Z,8.77
2022-10-04T13:31:41.383Z,8.27
2022-10-04T13:34:40.805Z,8.20
2022-10-04T13:37:56.832Z,10.52
2022-10-04T13:40:44.768Z,12.23
2022-10-04T13:43:44.111Z,9.52
2022-10-04T13:46:39.184Z,5.93
2022-10-04T13:49:17.785Z,10.02
2022-10-04T13:52:28.260Z,10.15
2022-10-04T13:55:34.671Z,14.32
2022-10-04T13:58:39.251Z,10.55
2022-10-04T14:01:44.050Z,10.43
2022-10-04T14:04:10.680Z,9.10
2022-10-04T14:07:08.029Z,6.65
2022-10-04T14:09:45.734Z,7.32
2022-10-04T14:12:40.164Z,7.70
2022-10-04T14:15:51.189Z,9.88
2022-10-04T14:18:36.251Z,5.03
2022-10-04T14:21:19.610Z,7.50
2022-10-04T14:24:24.128Z,6.35
2022-10-04T14:27:22.360Z,11.57
2022-10-04T14:30:14.937Z,7.63
2022-10-04T14:33:00.307Z,7.72
2022-10-04T14:35:53.275Z,8.65
2022-10-04T14:38:38.184Z,14.27
2022-10-04T14:41:50.777Z,9.55
2022-10-04T14:44:45.018Z,6.60
2022-10-04T14:47:50.340Z,6.72
2022-10-04T14:50:41.305Z,9.85
2022-10-04T14:53:23.743Z,6.45
2022-10-04T14:55:58.952Z,7.15
2022-10-04T14:58:29.962Z,9.75
2022-10-04T15:01:18.054Z,12.30
2022-10-04T15:03:55.928Z,8.63
2022-10-04T15:06:25.715Z,7.28
2022-10-04T15:09:10.356Z,9.65
2022-10-04T15:11:43.085Z,7.57
2022-10-04T15:14:37.764Z,6.60
2022-10-04T15:17:25.941Z,5.18
2022-10-04T15:20:06.343Z,6.43
2022-10-04T15:22:44.017Z,9.95
2022-10-04T15:25:39.595Z,4.55
2022-10-04T15:28:44.938Z,8.60
2022-10-04T15:31:11.439Z,6.70
2022-10-04T15:34:04.646Z,7.97
2022-10-04T15:36:52.439Z,5.32
2022-10-04T15:39:45.878Z,5.82
2022-10-04T15:42:25.034Z,6.35
2022-10-04T15:45:01.559Z,10.27
2022-10-04T15:47:46.606Z,3.85
2022-10-04T15:50:34.607Z,5.10
2022-10-04T15:53:17.416Z,3.58
2022-10-04T15:55:51.862Z,5.75
2022-10-04T15:58:31.068Z,5.07
2022-10-04T16:01:19.742Z,6.65
2022-10-04T16:03:53.202Z,7.70
2022-10-04T16:06:27.966Z,5.70
2022-10-04T16:09:19.753Z,6.30
2022-10-04T16:14:21.992Z,6.22
2022-10-04T16:17:02.170Z,6.70
2022-10-04T16:20:06.031Z,10.80
2022-10-04T16:22:34.154Z,7.15
2022-10-04T16:25:25.671Z,11.30
2022-10-04T16:27:55.999Z,5.88
2022-10-04T16:30:29.151Z,6.65
2022-10-04T16:32:58.845Z,6.03
2022-10-04T16:35:33.282Z,6.95
2022-10-04T16:38:11.845Z,6.80
2022-10-04T16:41:01.430Z,5.35
2022-10-04T16:43:30.150Z,7.53
2022-10-04T16:46:09.765Z,5.70
2022-10-04T16:49:18.865Z,7.50
2022-10-04T16:52:12.989Z,7.55
2022-10-04T16:55:08.545Z,8.82
2022-10-04T16:57:35.863Z,9.30
2022-10-04T17:00:38.418Z,4.88
2022-10-04T17:03:17.124Z,5.13
2022-10-04T17:06:14.240Z,7.97
2022-10-04T17:08:49.958Z,8.77
2022-10-04T17:11:29.010Z,8.65
2022-10-04T17:14:04.808Z,8.98
2022-10-04T17:16:38.794Z,6.68
2022-10-04T17:19:35.993Z,6.03
2022-10-04T17:22:36.538Z,10.25
2022-10-04T17:25:22.290Z,7.00
2022-10-04T17:28:27.390Z,6.78
2022-10-04T17:31:06.063Z,9.20
2022-10-04T17:33:57.256Z,9.32
2022-10-04T17:36:37.595Z,10.73
2022-10-04T17:39:22.644Z,10.77
2022-10-04T17:41:58.441Z,10.95
2022-10-04T17:44:53.454Z,10.65
2022-10-04T17:47:53.483Z,10.63
2022-10-04T17:50:52.908Z,14.00
2022-10-04T17:53:42.044Z,8.30
2022-10-04T17:56:11.718Z,9.10
2022-10-04T17:58:49.591Z,7.70
2022-10-04T18:01:44.302Z,6.82
2022-10-04T18:04:17.225Z,9.77
2022-10-04T18:07:10.251Z,12.45
2022-10-04T18:09:39.488Z,8.70
2022-10-04T18:12:42.187Z,13.02
2022-10-04T18:15:25.886Z,9.63
2022-10-04T18:18:07.910Z,8.00
2022-10-04T18:23:28.331Z,9.77
2022-10-04T18:26:03.042Z,10.85
2022-10-04T18:28:29.613Z,11.15
2022-10-04T18:31:00.265Z,8.35
2022-10-04T18:33:44.288Z,11.20
2022-10-04T18:36:46.111Z,14.13
2022-10-04T18:39:13.578Z,16.63
2022-10-04T18:41:54.439Z,12.88
2022-10-04T18:44:28.788Z,12.63
2022-10-04T18:46:59.014Z,13.75
2022-10-04T18:49:47.945Z,11.95
2022-10-04T18:52:33.599Z,10.48
2022-10-04T18:55:06.280Z,12.35
2022-10-04T18:58:00.669Z,9.98
2022-10-04T19:00:56.944Z,11.90
2022-10-04T19:03:51.686Z,14.57
2022-10-04T19:06:34.281Z,12.32
2022-10-04T19:09:17.504Z,11.35
2022-10-04T19:11:55.538Z,13.30
2022-10-04T19:14:47.474Z,13.85
2022-10-04T19:17:36.214Z,13.05
2022-10-04T19:20:18.547Z,13.15
2022-10-04T19:23:18.353Z,12.27
2022-10-04T19:26:26.289Z,13.43
2022-10-04T19:28:42.226Z,12.50
2022-10-04T19:31:09.049Z,13.35
2022-10-04T19:33:40.101Z,8.75
2022-10-04T19:36:18.767Z,10.47
2022-10-04T19:39:02.707Z,13.63
2022-10-04T19:41:46.699Z,19.27
2022-10-04T19:44:52.493Z,11.43
2022-10-04T19:47:41.231Z,11.32
2022-10-04T19:50:32.912Z,15.15
2022-10-04T19:53:21.071Z,11.68
2022-10-04T19:55:57.195Z,14.48
2022-10-04T19:58:28.280Z,14.40
2022-10-04T20:00:57.765Z,13.90
2022-10-04T20:03:27.346Z,14.88
2022-10-04T20:05:55.440Z,10.98
2022-10-04T20:08:47.228Z,14.50
2022-10-04T20:11:19.590Z,16.30
2022-10-04T20:14:23.784Z,11.70
2022-10-04T20:17:03.208Z,14.80
2022-10-04T20:19:30.235Z,12.45
2022-10-04T20:22:30.033Z,12.10
2022-10-04T20:24:58.220Z,19.48
2022-10-04T20:27:25.104Z,18.00
2022-10-04T20:29:51.744Z,13.93
2022-10-04T20:32:26.972Z,11.93
2022-10-04T20:34:55.976Z,12.50
2022-10-04T20:37:45.522Z,15.88
2022-10-04T20:40:34.833Z,14.35
2022-10-04T20:43:13.247Z,13.57
2022-10-04T20:45:45.900Z,15.95
2022-10-04T20:48:22.387Z,12.45
2022-10-04T20:50:49.902Z,14.18
2022-10-04T20:53:22.207Z,12.73
2022-10-04T20:55:50.580Z,12.65
2022-10-04T20:58:32.727Z,14.98
2022-10-04T21:01:06.369Z,15.35
2022-10-04T21:03:32.844Z,13.25
2022-10-04T21:06:11.181Z,11.63
2022-10-04T21:08:38.274Z,13.48
2022-10-04T21:11:07.484Z,11.77
2022-10-04T21:13:48.393Z,9.63
2022-10-04T21:16:39.798Z,13.02
2022-10-04T21:19:28.827Z,15.60
2022-10-04T21:21:56.140Z,14.70
2022-10-04T21:24:37.625Z,13.20
2022-10-04T21:27:07.207Z,13.35
2022-10-04T21:29:33.767Z,14.07
2022-10-04T21:32:00.482Z,12.32
2022-10-04T21:34:51.309Z,12.60
2022-10-04T21:37:14.458Z,13.77
2022-10-04T21:39:40.947Z,8.82
2022-10-04T21:42:07.501Z,13.10
2022-10-04T21:44:33.944Z,11.85
2022-10-04T21:47:00.444Z,10.45
2022-10-04T21:49:26.967Z,16.52
2022-10-04T21:51:53.450Z,14.02
2022-10-04T21:54:19.871Z,13.48
2022-10-04T21:56:46.622Z,13.63
2022-10-04T21:59:13.413Z,16.52
2022-10-04T22:01:39.821Z,14.25
2022-10-04T22:04:06.282Z,12.98
2022-10-04T22:06:32.752Z,12.40
2022-10-04T22:08:59.210Z,11.55
2022-10-04T22:11:25.817Z,13.30
2022-10-04T22:13:52.270Z,13.95
2022-10-04T22:16:18.760Z,16.30
2022-10-04T22:18:45.220Z,18.50
2022-10-04T22:21:11.686Z,16.33
2022-10-04T22:23:43.348Z,12.38
2022-10-04T22:26:18.376Z,13.85
2022-10-04T22:28:50.459Z,14.27
2022-10-04T22:31:19.610Z,12.02
2022-10-04T22:33:48.051Z,12.50
2022-10-04T22:36:14.440Z,13.95
2022-10-04T22:38:51.006Z,16.58
2022-10-04T22:41:19.373Z,16.67
2022-10-04T22:43:47.171Z,14.65
2022-10-04T22:46:19.558Z,13.88
2022-10-04T22:48:48.320Z,14.05
2022-10-04T22:51:15.377Z,12.80
2022-10-04T22:53:44.336Z,15.10
2022-10-04T22:56:13.064Z,19.67
2022-10-04T22:58:40.286Z,16.48
2022-10-04T23:01:16.566Z,13.40
2022-10-04T23:03:48.418Z,16.50
2022-10-04T23:08:42.694Z,10.95
2022-10-04T23:11:09.767Z,10.95
2022-10-04T23:13:36.962Z,12.43
2022-10-04T23:16:19.364Z,12.50
2022-10-04T23:18:45.873Z,14.65
2022-10-04T23:21:20.926Z,14.15
2022-10-04T23:23:48.278Z,20.38
2022-10-04T23:26:24.734Z,12.65
2022-10-04T23:28:51.809Z,14.57
2022-10-04T23:31:27.437Z,18.23
2022-10-04T23:33:56.821Z,12.90
2022-10-04T23:36:23.647Z,11.75
2022-10-04T23:38:54.706Z,16.00
2022-10-04T23:41:21.180Z,16.50
2022-10-04T23:43:48.975Z,13.52
2022-10-04T23:46:21.054Z,13.80
2022-10-04T23:48:48.328Z,17.80
2022-10-04T23:51:17.279Z,17.52
2022-10-04T23:53:46.396Z,9.32
2022-10-04T23:56:24.795Z,13.20
2022-10-04T23:58:55.241Z,19.05
